Terminal Aerodrome Forecast
Issued by NWS Memphis, TN

Home | Current Version | Previous Version | Text Only | Print | Product List | Glossary On
Versions: 1 2 3 4 5 6 7 8 9 10 11 12 13 14 15 16 17
000
FTUS44 KMEG 291130
TAFMKL
TAF
KMKL 291130Z 2912/3012 16005KT P6SM OVC006
      TEMPO 2912/2913 OVC004
     FM291500 18006KT P6SM BKN035 BKN250
     FM292000 18006KT P6SM VCTS BKN035CB BKN250
     FM300100 18003KT P6SM BKN050 BKN250
     FM300900 18004KT P6SM OVC006=

USA.gov is the U.S. government's official web portal to all federal, state and local government web resources and services.